Wetterdaten: Woche 09.01.17 - 15.01.17 (KW2)
Datum Zeit Temp. A. Feuchte A. Luftdruck Regen Wind Richtung Sonnenschein ET UV Solar Taupunkt Windchill Windben Empfang
09.01.2017 00:00 -2,0 C 95 % 1030,5 hPa 0,0 l/m 11,0 km/h (2 Bft) W-SW 0,00 h 0,000 mm 0,0 UV-I 0 W/m -2,7 C -6,4 C 16,7 km/h (3 Bft) 98,99 %
09.01.2017 01:00 -1,8 C 95 % 1030,2 hPa 0,0 l/m 9,0 km/h (2 Bft) W-SW 0,00 h 0,000 mm 0,0 UV-I 0 W/m -2,5 C -4,5 C 13,7 km/h (3 Bft) 98,00 %
09.01.2017 02:00 -1,8 C 95 % 1030,2 hPa 0,0 l/m 9,7 km/h (2 Bft) W-SW 0,00 h 0,000 mm 0,0 UV-I 0 W/m -2,5 C -5,1 C 15,1 km/h (3 Bft) 98,50 %
09.01.2017 03:00 -1,8 C 95 % 1030,2 hPa 0,0 l/m 7,2 km/h (2 Bft) W-SW 0,00 h 0,000 mm 0,0 UV-I 0 W/m -2,5 C -3,1 C 12,9 km/h (3 Bft) 98,67 %
09.01.2017 04:00 -2,2 C 95 % 1030,0 hPa 0,0 l/m 7,8 km/h (2 Bft) W 0,00 h 0,000 mm 0,0 UV-I 0 W/m -2,9 C -3,8 C 14,2 km/h (3 Bft) 98,83 %
09.01.2017 05:00 -2,2 C 94 % 1029,9 hPa 0,0 l/m 7,4 km/h (2 Bft) W 0,00 h 0,000 mm 0,0 UV-I 0 W/m -3,1 C -3,5 C 12,2 km/h (2 Bft) 98,79 %
09.01.2017 06:00 -2,3 C 94 % 1029,8 hPa 0,0 l/m 5,4 km/h (1 Bft) W 0,00 h 0,000 mm 0,0 UV-I 0 W/m -3,1 C -2,4 C 9,7 km/h (2 Bft) 98,54 %
09.01.2017 07:00 -2,2 C 94 % 1029,2 hPa 0,0 l/m 7,3 km/h (2 Bft) W-SW 0,00 h 0,000 mm 0,0 UV-I 5 W/m -3,1 C -3,3 C 11,6 km/h (2 Bft) 99,35 %
09.01.2017 08:00 -1,9 C 93 % 1029,0 hPa 0,0 l/m 6,5 km/h (2 Bft) W 0,00 h 0,000 mm 0,0 UV-I 19 W/m -2,9 C -2,5 C 11,1 km/h (2 Bft) 97,96 %
09.01.2017 09:00 -1,6 C 93 % 1028,9 hPa 0,0 l/m 6,2 km/h (2 Bft) W 0,00 h 0,000 mm 0,0 UV-I 51 W/m -2,7 C -2,0 C 10,3 km/h (2 Bft) 99,52 %
09.01.2017 10:00 -1,2 C 91 % 1028,7 hPa 0,0 l/m 6,4 km/h (2 Bft) W-SW 0,00 h 0,025 mm 0,0 UV-I 87 W/m -2,5 C -1,9 C 10,4 km/h (2 Bft) 98,00 %
09.01.2017 11:00 -0,7 C 89 % 1028,1 hPa 0,0 l/m 8,2 km/h (2 Bft) W-SW 0,00 h 0,026 mm 0,5 UV-I 159 W/m -2,3 C -2,6 C 13,5 km/h (3 Bft) 99,81 %
09.01.2017 12:00 -0,3 C 89 % 1027,3 hPa 0,0 l/m 5,9 km/h (2 Bft) W-SW 0,07 h 0,051 mm 0,5 UV-I 170 W/m -1,9 C -0,6 C 10,3 km/h (2 Bft) 97,98 %
09.01.2017 13:00 -0,2 C 88 % 1026,8 hPa 0,0 l/m 3,8 km/h (1 Bft) W 0,27 h 0,050 mm 0,5 UV-I 142 W/m -1,9 C -0,2 C 7,0 km/h (2 Bft) 99,58 %
09.01.2017 14:00 -0,5 C 88 % 1026,3 hPa 0,0 l/m 3,4 km/h (1 Bft) W 0,00 h 0,051 mm 0,0 UV-I 91 W/m -2,2 C -0,5 C 7,0 km/h (2 Bft) 97,92 %
09.01.2017 15:00 -0,8 C 89 % 1025,7 hPa 0,0 l/m 3,8 km/h (1 Bft) W 0,00 h 0,026 mm 0,0 UV-I 46 W/m -2,4 C -0,8 C 7,2 km/h (2 Bft) 99,71 %
09.01.2017 16:00 -1,2 C 90 % 1025,5 hPa 0,0 l/m 3,1 km/h (1 Bft) W 0,03 h 0,025 mm 0,0 UV-I 11 W/m -2,7 C -1,2 C 4,9 km/h (1 Bft) 97,58 %
09.01.2017 17:00 -1,6 C 91 % 1025,1 hPa 0,0 l/m 1,3 km/h (1 Bft) W-SW 0,00 h 0,000 mm 0,0 UV-I 0 W/m -2,9 C -1,6 C 2,6 km/h (1 Bft) 99,17 %
09.01.2017 18:00 -2,1 C 93 % 1024,7 hPa 0,0 l/m 0,6 km/h (0 Bft) W-SW 0,00 h 0,000 mm 0,0 UV-I 0 W/m -3,0 C -2,1 C 1,4 km/h (1 Bft) 97,96 %
09.01.2017 19:00 -2,3 C 94 % 1024,1 hPa 0,0 l/m 1,4 km/h (1 Bft) W-SW 0,00 h 0,000 mm 0,0 UV-I 0 W/m -3,1 C -2,3 C 2,6 km/h (1 Bft) 99,42 %
09.01.2017 20:00 -2,4 C 94 % 1023,5 hPa 0,0 l/m 1,2 km/h (1 Bft) W-SW 0,00 h 0,000 mm 0,0 UV-I 0 W/m -3,3 C -2,4 C 2,6 km/h (1 Bft) 98,28 %
09.01.2017 21:00 -2,5 C 95 % 1023,1 hPa 0,0 l/m 1,1 km/h (0 Bft) W-SW 0,00 h 0,000 mm 0,0 UV-I 0 W/m -3,3 C -2,5 C 2,0 km/h (1 Bft) 99,46 %
09.01.2017 22:00 -2,7 C 95 % 1022,5 hPa 0,0 l/m 1,7 km/h (1 Bft) O 0,00 h 0,000 mm 0,0 UV-I 0 W/m -3,4 C -2,7 C 3,1 km/h (1 Bft) 98,00 %
09.01.2017 23:00 -2,4 C 94 % 1021,9 hPa 0,0 l/m 4,4 km/h (1 Bft) O-SO 0,00 h 0,000 mm 0,0 UV-I 0 W/m -3,2 C -2,6 C 7,0 km/h (2 Bft) 99,29 %
10.01.2017 00:00 -2,4 C 93 % 1021,0 hPa 0,0 l/m 3,3 km/h (1 Bft) O-SO 0,00 h 0,000 mm 0,0 UV-I 0 W/m -3,4 C -2,4 C 5,7 km/h (1 Bft) 97,99 %
10.01.2017 01:00 -2,4 C 93 % 1020,2 hPa 0,0 l/m 4,8 km/h (1 Bft) O-NO 0,00 h 0,000 mm 0,0 UV-I 0 W/m -3,4 C -2,8 C 7,5 km/h (2 Bft) 98,98 %
10.01.2017 02:00 -2,7 C 93 % 1019,4 hPa 0,0 l/m 4,8 km/h (1 Bft) O-NO 0,00 h 0,000 mm 0,0 UV-I 0 W/m -3,6 C -2,8 C 7,1 km/h (2 Bft) 98,42 %
10.01.2017 03:00 -2,7 C 93 % 1018,9 hPa 0,0 l/m 8,6 km/h (2 Bft) O-NO 0,00 h 0,000 mm 0,0 UV-I 0 W/m -3,6 C -5,3 C 12,8 km/h (3 Bft) 98,21 %
10.01.2017 04:00 -2,8 C 92 % 1018,1 hPa 0,0 l/m 9,3 km/h (2 Bft) O 0,00 h 0,000 mm 0,0 UV-I 0 W/m -3,8 C -5,8 C 13,5 km/h (3 Bft) 99,03 %
10.01.2017 05:00 -3,1 C 93 % 1017,0 hPa 0,0 l/m 7,2 km/h (2 Bft) O-NO 0,00 h 0,000 mm 0,0 UV-I 0 W/m -4,1 C -4,6 C 10,6 km/h (2 Bft) 98,16 %
10.01.2017 06:00 -3,4 C 94 % 1016,4 hPa 0,0 l/m 10,7 km/h (2 Bft) O-NO 0,00 h 0,000 mm 0,0 UV-I 0 W/m -4,2 C -7,6 C 15,1 km/h (3 Bft) 99,10 %
10.01.2017 07:00 -4,3 C 94 % 1016,3 hPa 0,0 l/m 16,9 km/h (3 Bft) O-NO 0,00 h 0,000 mm 0,0 UV-I 6 W/m -5,1 C -13,3 C 23,4 km/h (4 Bft) 97,60 %
10.01.2017 08:00 -4,8 C 94 % 1015,8 hPa 0,0 l/m 17,2 km/h (3 Bft) O-NO 0,37 h 0,000 mm 0,0 UV-I 29 W/m -5,7 C -14,2 C 22,9 km/h (4 Bft) 99,58 %
10.01.2017 09:00 -5,3 C 94 % 1015,4 hPa 0,0 l/m 21,2 km/h (4 Bft) O-NO 0,00 h 0,025 mm 0,0 UV-I 73 W/m -6,1 C -17,1 C 28,7 km/h (4 Bft) 98,02 %
10.01.2017 10:00 -5,4 C 93 % 1014,8 hPa 0,0 l/m 19,0 km/h (3 Bft) O-NO 0,33 h 0,026 mm 0,0 UV-I 146 W/m -6,5 C -16,0 C 26,2 km/h (4 Bft) 99,20 %
10.01.2017 11:00 -5,0 C 89 % 1014,2 hPa 0,0 l/m 16,7 km/h (3 Bft) O-NO 1,00 h 0,051 mm 0,6 UV-I 338 W/m -6,6 C -14,1 C 22,6 km/h (4 Bft) 98,05 %
10.01.2017 12:00 -4,7 C 85 % 1013,4 hPa 0,0 l/m 16,9 km/h (3 Bft) O-NO 1,00 h 0,101 mm 0,7 UV-I 343 W/m -6,8 C -13,8 C 23,4 km/h (4 Bft) 98,55 %
10.01.2017 13:00 -4,6 C 83 % 1012,7 hPa 0,0 l/m 19,8 km/h (3 Bft) O-NO 1,00 h 0,102 mm 0,5 UV-I 300 W/m -7,0 C -15,2 C 27,7 km/h (4 Bft) 98,84 %
10.01.2017 14:00 -5,2 C 83 % 1012,7 hPa 0,0 l/m 25,3 km/h (4 Bft) O-NO 1,00 h 0,101 mm 0,0 UV-I 212 W/m -7,7 C -18,9 C 32,8 km/h (5 Bft) 99,09 %
10.01.2017 15:00 -6,3 C 83 % 1012,6 hPa 0,0 l/m 23,2 km/h (4 Bft) O-NO 1,00 h 0,077 mm 0,0 UV-I 100 W/m -8,6 C -19,3 C 30,8 km/h (5 Bft) 98,27 %
10.01.2017 16:00 -7,1 C 85 % 1012,8 hPa 0,0 l/m 23,1 km/h (4 Bft) O-NO 0,33 h 0,050 mm 0,0 UV-I 17 W/m -9,3 C -20,4 C 31,1 km/h (5 Bft) 98,95 %
10.01.2017 17:00 -7,7 C 85 % 1013,5 hPa 0,0 l/m 25,7 km/h (4 Bft) O-NO 0,00 h 0,026 mm 0,0 UV-I 0 W/m -9,8 C -22,4 C 35,2 km/h (5 Bft) 98,81 %
10.01.2017 18:00 -8,3 C 85 % 1014,1 hPa 0,0 l/m 26,0 km/h (4 Bft) O-NO 0,00 h 0,025 mm 0,0 UV-I 0 W/m -10,5 C -23,4 C 35,4 km/h (5 Bft) 98,20 %
10.01.2017 19:00 -8,7 C 84 % 1014,6 hPa 0,0 l/m 19,5 km/h (3 Bft) O-NO 0,00 h 0,026 mm 0,0 UV-I 0 W/m -10,9 C -20,4 C 26,9 km/h (4 Bft) 98,51 %
10.01.2017 20:00 -8,7 C 85 % 1015,0 hPa 0,0 l/m 15,8 km/h (3 Bft) O-NO 0,00 h 0,025 mm 0,0 UV-I 0 W/m -10,8 C -18,0 C 22,0 km/h (4 Bft) 98,38 %
10.01.2017 21:00 -9,0 C 84 % 1015,4 hPa 0,0 l/m 16,9 km/h (3 Bft) O-NO 0,00 h 0,000 mm 0,0 UV-I 0 W/m -11,2 C -19,2 C 23,0 km/h (4 Bft) 99,30 %
10.01.2017 22:00 -9,5 C 83 % 1015,8 hPa 0,0 l/m 19,6 km/h (3 Bft) O-NO 0,00 h 0,025 mm 0,0 UV-I 0 W/m -11,8 C -21,6 C 27,4 km/h (4 Bft) 98,13 %
10.01.2017 23:00 -9,8 C 83 % 1016,3 hPa 0,0 l/m 13,9 km/h (3 Bft) O-NO 0,00 h 0,026 mm 0,0 UV-I 0 W/m -12,1 C -17,8 C 19,4 km/h (3 Bft) 99,07 %
11.01.2017 00:00 -9,6 C 83 % 1016,9 hPa 0,0 l/m 14,8 km/h (3 Bft) O-NO 0,00 h 0,000 mm 0,0 UV-I 0 W/m -12,0 C -18,3 C 20,4 km/h (4 Bft) 97,82 %
11.01.2017 01:00 -9,9 C 81 % 1017,4 hPa 0,0 l/m 16,9 km/h (3 Bft) O-NO 0,00 h 0,000 mm 0,0 UV-I 0 W/m -12,5 C -20,3 C 22,7 km/h (4 Bft) 99,08 %
11.01.2017 02:00 -10,2 C 82 % 1018,1 hPa 0,0 l/m 10,9 km/h (2 Bft) O-NO 0,00 h 0,025 mm 0,0 UV-I 0 W/m -12,7 C -15,3 C 15,8 km/h (3 Bft) 97,97 %
11.01.2017 03:00 -10,3 C 82 % 1018,3 hPa 0,0 l/m 10,8 km/h (2 Bft) O-NO 0,00 h 0,000 mm 0,0 UV-I 0 W/m -12,8 C -15,7 C 15,7 km/h (3 Bft) 99,02 %
11.01.2017 04:00 -10,6 C 83 % 1018,5 hPa 0,0 l/m 8,0 km/h (2 Bft) O-NO 0,00 h 0,000 mm 0,0 UV-I 0 W/m -12,9 C -12,9 C 11,9 km/h (2 Bft) 98,00 %
11.01.2017 05:00 -10,6 C 83 % 1018,8 hPa 0,0 l/m 8,9 km/h (2 Bft) O-NO 0,00 h 0,000 mm 0,0 UV-I 0 W/m -12,9 C -13,9 C 12,9 km/h (3 Bft) 98,93 %
11.01.2017 06:00 -10,6 C 83 % 1019,2 hPa 0,0 l/m 9,3 km/h (2 Bft) O-NO 0,00 h 0,000 mm 0,0 UV-I 0 W/m -12,9 C -14,4 C 14,3 km/h (3 Bft) 95,46 %
11.01.2017 07:00 -10,6 C 84 % 1019,7 hPa 0,0 l/m 6,7 km/h (2 Bft) O-NO 0,00 h 0,000 mm 0,0 UV-I 5 W/m -12,7 C -11,5 C 10,2 km/h (2 Bft) 98,83 %
11.01.2017 08:00 -10,4 C 84 % 1020,1 hPa 0,0 l/m 4,8 km/h (1 Bft) O-NO 0,03 h 0,000 mm 0,0 UV-I 29 W/m -12,6 C -10,9 C 7,7 km/h (2 Bft) 97,22 %
11.01.2017 09:00 -10,1 C 84 % 1020,2 hPa 0,0 l/m 3,5 km/h (1 Bft) O-NO 0,00 h 0,000 mm 0,0 UV-I 80 W/m -12,3 C -10,1 C 5,7 km/h (1 Bft) 98,99 %
11.01.2017 10:00 -9,7 C 84 % 1020,0 hPa 0,0 l/m 4,3 km/h (1 Bft) NO 0,00 h 0,026 mm 0,0 UV-I 111 W/m -12,0 C -9,9 C 6,7 km/h (2 Bft) 97,55 %
11.01.2017 11:00 -9,0 C 83 % 1019,3 hPa 0,0 l/m 5,4 km/h (1 Bft) NO 0,50 h 0,025 mm 0,5 UV-I 196 W/m -11,3 C -9,9 C 8,3 km/h (2 Bft) 98,94 %
11.01.2017 12:00 -8,1 C 81 % 1018,0 hPa 0,0 l/m 3,6 km/h (1 Bft) NO 0,93 h 0,051 mm 0,6 UV-I 253 W/m -10,7 C -8,1 C 5,9 km/h (2 Bft) 98,15 %
11.01.2017 13:00 -7,6 C 81 % 1016,6 hPa 0,0 l/m 3,6 km/h (1 Bft) O-NO 0,10 h 0,076 mm 0,5 UV-I 134 W/m -10,3 C -7,6 C 5,7 km/h (1 Bft) 97,40 %
11.01.2017 14:00 -7,2 C 81 % 1015,7 hPa 0,0 l/m 3,4 km/h (1 Bft) NO 0,00 h 0,026 mm 0,0 UV-I 90 W/m -9,9 C -7,2 C 5,4 km/h (1 Bft) 98,92 %
11.01.2017 15:00 -7,2 C 82 % 1014,7 hPa 0,0 l/m 4,4 km/h (1 Bft) O-NO 0,00 h 0,025 mm 0,0 UV-I 53 W/m -9,8 C -7,2 C 6,3 km/h (2 Bft) 97,55 %
11.01.2017 16:00 -7,2 C 83 % 1013,9 hPa 0,0 l/m 2,1 km/h (1 Bft) O 0,13 h 0,025 mm 0,0 UV-I 12 W/m -9,5 C -7,2 C 4,2 km/h (1 Bft) 99,14 %
11.01.2017 17:00 -7,3 C 85 % 1012,4 hPa 0,0 l/m 2,7 km/h (1 Bft) SO 0,00 h 0,000 mm 0,0 UV-I 0 W/m -9,5 C -7,5 C 5,5 km/h (1 Bft) 97,57 %
11.01.2017 18:00 -7,3 C 85 % 1011,3 hPa 0,0 l/m 5,0 km/h (1 Bft) NO 0,00 h 0,000 mm 0,0 UV-I 0 W/m -9,3 C -7,7 C 8,0 km/h (2 Bft) 98,52 %
11.01.2017 19:00 -7,2 C 88 % 1011,0 hPa 0,0 l/m 1,6 km/h (1 Bft) N-NO 0,00 h 0,000 mm 0,0 UV-I 0 W/m -8,8 C -7,2 C 3,5 km/h (1 Bft) 97,48 %
11.01.2017 20:00 -7,1 C 93 % 1010,1 hPa 0,0 l/m 1,7 km/h (1 Bft) O-SO 0,00 h 0,000 mm 0,0 UV-I 0 W/m -8,1 C -7,1 C 4,0 km/h (1 Bft) 99,03 %
11.01.2017 21:00 -6,9 C 93 % 1010,2 hPa 0,0 l/m 0,5 km/h (0 Bft) N-NW 0,00 h 0,000 mm 0,0 UV-I 0 W/m -7,8 C -6,9 C 2,3 km/h (1 Bft) 97,66 %
11.01.2017 22:00 -6,6 C 94 % 1010,3 hPa 0,0 l/m 1,4 km/h (1 Bft) W-SW 0,00 h 0,000 mm 0,0 UV-I 0 W/m -7,5 C -6,6 C 3,0 km/h (1 Bft) 99,05 %
11.01.2017 23:00 -5,8 C 94 % 1010,7 hPa 0,0 l/m 1,4 km/h (1 Bft) W-SW 0,00 h 0,000 mm 0,0 UV-I 0 W/m -6,6 C -5,8 C 3,0 km/h (1 Bft) 98,03 %
12.01.2017 00:00 -2,8 C 96 % 1010,9 hPa 0,0 l/m 8,1 km/h (2 Bft) W-SW 0,00 h 0,000 mm 0,0 UV-I 0 W/m -3,3 C -6,0 C 12,4 km/h (3 Bft) 98,46 %
12.01.2017 01:00 2,0 C 94 % 1011,3 hPa 0,0 l/m 18,4 km/h (3 Bft) W-SW 0,00 h 0,000 mm 0,0 UV-I 0 W/m 1,1 C -6,2 C 26,8 km/h (4 Bft) 99,30 %
12.01.2017 02:00 2,7 C 91 % 1012,1 hPa 0,0 l/m 16,8 km/h (3 Bft) W-SW 0,00 h 0,000 mm 0,0 UV-I 0 W/m 1,3 C -4,6 C 26,1 km/h (4 Bft) 97,95 %
12.01.2017 03:00 2,7 C 90 % 1012,6 hPa 0,2 l/m 20,8 km/h (4 Bft) W 0,00 h 0,025 mm 0,0 UV-I 0 W/m 1,1 C -6,5 C 31,8 km/h (5 Bft) 98,89 %
12.01.2017 04:00 2,0 C 91 % 1013,2 hPa 0,0 l/m 16,7 km/h (3 Bft) W-SW 0,00 h 0,026 mm 0,0 UV-I 0 W/m 0,7 C -5,4 C 24,2 km/h (4 Bft) 97,84 %
12.01.2017 05:00 2,0 C 92 % 1013,5 hPa 0,0 l/m 15,9 km/h (3 Bft) W-SW 0,00 h 0,025 mm 0,0 UV-I 0 W/m 0,8 C -5,0 C 23,5 km/h (4 Bft) 99,37 %
12.01.2017 06:00 2,2 C 91 % 1014,2 hPa 0,0 l/m 17,4 km/h (3 Bft) W-SW 0,00 h 0,000 mm 0,0 UV-I 0 W/m 0,8 C -5,5 C 26,5 km/h (4 Bft) 97,48 %
12.01.2017 07:00 2,4 C 90 % 1014,7 hPa 0,0 l/m 18,6 km/h (3 Bft) SW 0,00 h 0,026 mm 0,0 UV-I 6 W/m 0,9 C -5,9 C 27,9 km/h (4 Bft) 99,02 %
12.01.2017 08:00 2,8 C 87 % 1015,3 hPa 0,0 l/m 21,6 km/h (4 Bft) W-SW 0,03 h 0,025 mm 0,0 UV-I 24 W/m 1,0 C -6,6 C 31,2 km/h (5 Bft) 98,74 %
12.01.2017 09:00 3,2 C 87 % 1015,6 hPa 0,0 l/m 18,2 km/h (3 Bft) W-SW 0,37 h 0,025 mm 0,0 UV-I 97 W/m 1,2 C -4,7 C 26,3 km/h (4 Bft) 98,27 %
12.01.2017 10:00 3,5 C 86 % 1015,8 hPa 0,4 l/m 17,1 km/h (3 Bft) W-SW 0,00 h 0,051 mm 0,5 UV-I 130 W/m 1,3 C -3,8 C 25,1 km/h (4 Bft) 98,49 %
12.01.2017 11:00 3,7 C 84 % 1015,3 hPa 0,2 l/m 16,1 km/h (3 Bft) W-SW 0,20 h 0,076 mm 0,4 UV-I 164 W/m 1,2 C -3,1 C 23,7 km/h (4 Bft) 98,23 %
12.01.2017 12:00 3,2 C 87 % 1014,7 hPa 0,2 l/m 15,2 km/h (3 Bft) W-SW 0,00 h 0,077 mm 0,0 UV-I 102 W/m 1,3 C -3,1 C 22,5 km/h (4 Bft) 98,86 %
12.01.2017 13:00 3,6 C 87 % 1014,3 hPa 0,0 l/m 13,1 km/h (3 Bft) W-SW 0,10 h 0,050 mm 0,3 UV-I 132 W/m 1,7 C -1,5 C 18,9 km/h (3 Bft) 98,74 %
12.01.2017 14:00 3,9 C 87 % 1013,7 hPa 0,0 l/m 9,7 km/h (2 Bft) W-SW 0,20 h 0,077 mm 0,0 UV-I 122 W/m 2,0 C 1,2 C 14,7 km/h (3 Bft) 98,94 %
12.01.2017 15:00 3,7 C 89 % 1013,1 hPa 0,0 l/m 7,7 km/h (2 Bft) SW 0,00 h 0,050 mm 0,0 UV-I 47 W/m 2,1 C 2,4 C 12,6 km/h (3 Bft) 98,64 %
12.01.2017 16:00 3,7 C 89 % 1012,2 hPa 0,0 l/m 9,9 km/h (2 Bft) SW 0,20 h 0,026 mm 0,0 UV-I 14 W/m 2,0 C 0,8 C 15,1 km/h (3 Bft) 99,24 %
12.01.2017 17:00 3,4 C 89 % 1011,5 hPa 0,0 l/m 5,3 km/h (1 Bft) S-SW 0,00 h 0,025 mm 0,0 UV-I 0 W/m 1,8 C 3,4 C 8,7 km/h (2 Bft) 97,83 %
12.01.2017 18:00 2,9 C 91 % 1010,3 hPa 0,0 l/m 1,2 km/h (1 Bft) S 0,00 h 0,000 mm 0,0 UV-I 0 W/m 1,5 C 2,9 C 3,0 km/h (1 Bft) 99,51 %
12.01.2017 19:00 2,1 C 95 % 1008,8 hPa 0,2 l/m 0,6 km/h (0 Bft) S 0,00 h 0,000 mm 0,0 UV-I 0 W/m 1,4 C 2,1 C 1,7 km/h (1 Bft) 97,57 %
12.01.2017 20:00 2,0 C 95 % 1006,9 hPa 0,0 l/m 2,3 km/h (1 Bft) SO 0,00 h 0,000 mm 0,0 UV-I 0 W/m 1,3 C 2,0 C 4,4 km/h (1 Bft) 99,36 %
12.01.2017 21:00 1,8 C 95 % 1004,6 hPa 0,0 l/m 5,4 km/h (1 Bft) O 0,00 h 0,000 mm 0,0 UV-I 0 W/m 1,1 C 0,7 C 8,4 km/h (2 Bft) 97,64 %
12.01.2017 22:00 1,3 C 95 % 1002,6 hPa 0,0 l/m 6,0 km/h (2 Bft) NO 0,00 h 0,000 mm 0,0 UV-I 0 W/m 0,7 C 1,0 C 8,0 km/h (2 Bft) 99,57 %
12.01.2017 23:00 1,1 C 96 % 1000,5 hPa 0,0 l/m 6,8 km/h (2 Bft) O-NO 0,00 h 0,000 mm 0,0 UV-I 0 W/m 0,6 C 0,2 C 10,0 km/h (2 Bft) 98,40 %
13.01.2017 00:00 0,8 C 96 % 999,0 hPa 0,0 l/m 2,2 km/h (1 Bft) N-NO 0,00 h 0,000 mm 0,0 UV-I 0 W/m 0,3 C 0,8 C 4,1 km/h (1 Bft) 99,25 %
13.01.2017 01:00 0,6 C 97 % 998,3 hPa 0,0 l/m 0,9 km/h (0 Bft) W-NW 0,00 h 0,000 mm 0,0 UV-I 0 W/m 0,2 C 0,6 C 2,1 km/h (1 Bft) 98,91 %
13.01.2017 02:00 0,6 C 97 % 997,8 hPa 0,0 l/m 4,2 km/h (1 Bft) S-SW 0,00 h 0,000 mm 0,0 UV-I 0 W/m 0,2 C 0,5 C 7,4 km/h (2 Bft) 98,81 %
13.01.2017 03:00 0,5 C 97 % 995,9 hPa 0,0 l/m 5,5 km/h (1 Bft) NO 0,00 h 0,000 mm 0,0 UV-I 0 W/m 0,1 C -0,3 C 9,4 km/h (2 Bft) 98,63 %
13.01.2017 04:00 0,3 C 97 % 995,3 hPa 0,2 l/m 5,5 km/h (1 Bft) N-NO 0,00 h 0,000 mm 0,0 UV-I 0 W/m -0,1 C -0,9 C 9,6 km/h (2 Bft) 98,80 %
13.01.2017 05:00 1,7 C 98 % 997,9 hPa 1,6 l/m 13,8 km/h (3 Bft) S-SW 0,00 h 0,000 mm 0,0 UV-I 0 W/m 1,4 C -4,1 C 23,5 km/h (4 Bft) 99,20 %
13.01.2017 06:00 3,1 C 91 % 997,7 hPa 0,4 l/m 14,2 km/h (3 Bft) S-SW 0,00 h 0,000 mm 0,0 UV-I 0 W/m 1,8 C -2,6 C 23,3 km/h (4 Bft) 98,19 %
13.01.2017 07:00 3,5 C 87 % 998,0 hPa 0,2 l/m 21,7 km/h (4 Bft) S-SW 0,00 h 0,025 mm 0,0 UV-I 5 W/m 1,4 C -5,8 C 33,2 km/h (5 Bft) 99,71 %
13.01.2017 08:00 3,5 C 84 % 998,8 hPa 0,0 l/m 18,9 km/h (3 Bft) SW 0,00 h 0,026 mm 0,0 UV-I 16 W/m 1,0 C -4,6 C 28,5 km/h (4 Bft) 98,04 %
13.01.2017 09:00 3,9 C 76 % 999,8 hPa 0,0 l/m 21,6 km/h (4 Bft) W-SW 0,10 h 0,025 mm 0,0 UV-I 87 W/m 0,0 C -5,0 C 33,0 km/h (5 Bft) 99,53 %
13.01.2017 10:00 3,7 C 75 % 1000,2 hPa 0,0 l/m 20,0 km/h (4 Bft) SW 0,07 h 0,076 mm 0,0 UV-I 121 W/m -0,3 C -4,8 C 30,5 km/h (5 Bft) 98,32 %
13.01.2017 11:00 3,6 C 74 % 1000,2 hPa 0,0 l/m 20,4 km/h (4 Bft) W-SW 0,37 h 0,077 mm 0,5 UV-I 177 W/m -0,7 C -5,0 C 31,5 km/h (5 Bft) 99,46 %
13.01.2017 12:00 3,6 C 65 % 1000,0 hPa 0,0 l/m 25,4 km/h (4 Bft) W-SW 0,00 h 0,101 mm 0,0 UV-I 145 W/m -2,4 C -6,8 C 38,9 km/h (6 Bft) 98,11 %
13.01.2017 13:00 3,2 C 64 % 999,9 hPa 0,0 l/m 22,4 km/h (4 Bft) W-SW 0,00 h 0,127 mm 0,0 UV-I 107 W/m -3,0 C -6,4 C 34,8 km/h (5 Bft) 98,74 %
13.01.2017 14:00 2,7 C 65 % 1000,5 hPa 0,0 l/m 23,1 km/h (4 Bft) W-SW 0,00 h 0,102 mm 0,0 UV-I 71 W/m -3,1 C -7,2 C 34,7 km/h (5 Bft) 98,32 %
13.01.2017 15:00 2,0 C 67 % 1001,3 hPa 0,0 l/m 24,1 km/h (4 Bft) W-SW 0,00 h 0,101 mm 0,0 UV-I 33 W/m -3,5 C -8,5 C 38,2 km/h (5 Bft) 99,34 %
13.01.2017 16:00 0,9 C 81 % 1002,1 hPa 0,0 l/m 19,2 km/h (3 Bft) W-SW 0,00 h 0,077 mm 0,0 UV-I 9 W/m -2,0 C -8,0 C 29,7 km/h (5 Bft) 98,45 %
13.01.2017 17:00 -0,3 C 90 % 1002,5 hPa 0,0 l/m 18,1 km/h (3 Bft) W-SW 0,00 h 0,025 mm 0,0 UV-I 0 W/m -1,7 C -9,0 C 27,0 km/h (4 Bft) 98,90 %
13.01.2017 18:00 -0,5 C 92 % 1002,6 hPa 0,0 l/m 19,0 km/h (3 Bft) W-SW 0,00 h 0,025 mm 0,0 UV-I 0 W/m -1,7 C -9,7 C 29,0 km/h (5 Bft) 98,66 %
13.01.2017 19:00 -0,7 C 93 % 1003,2 hPa 0,0 l/m 14,7 km/h (3 Bft) W-SW 0,00 h 0,000 mm 0,0 UV-I 0 W/m -1,7 C -7,7 C 21,3 km/h (4 Bft) 98,65 %
13.01.2017 20:00 -0,8 C 94 % 1003,5 hPa 0,0 l/m 15,0 km/h (3 Bft) W-SW 0,00 h 0,000 mm 0,0 UV-I 0 W/m -1,7 C -7,9 C 22,5 km/h (4 Bft) 99,03 %
13.01.2017 21:00 -0,8 C 95 % 1003,6 hPa 0,0 l/m 13,9 km/h (3 Bft) W-SW 0,00 h 0,000 mm 0,0 UV-I 0 W/m -1,6 C -7,3 C 20,3 km/h (4 Bft) 98,69 %
13.01.2017 22:00 -1,0 C 95 % 1004,0 hPa 0,0 l/m 15,3 km/h (3 Bft) W-SW 0,00 h 0,000 mm 0,0 UV-I 0 W/m -1,6 C -8,3 C 22,7 km/h (4 Bft) 98,66 %
13.01.2017 23:00 -0,9 C 95 % 1004,3 hPa 0,0 l/m 16,4 km/h (3 Bft) W-SW 0,00 h 0,000 mm 0,0 UV-I 0 W/m -1,6 C -8,9 C 23,6 km/h (4 Bft) 98,38 %
14.01.2017 00:00 -0,6 C 91 % 1004,6 hPa 0,0 l/m 18,5 km/h (3 Bft) W-SW 0,00 h 0,000 mm 0,0 UV-I 0 W/m -1,8 C -9,7 C 27,8 km/h (4 Bft) 99,69 %
14.01.2017 01:00 -0,4 C 83 % 1005,0 hPa 0,0 l/m 17,6 km/h (3 Bft) W-SW 0,00 h 0,000 mm 0,0 UV-I 0 W/m -2,9 C -8,8 C 26,4 km/h (4 Bft) 98,29 %
14.01.2017 02:00 -1,2 C 83 % 1005,6 hPa 0,0 l/m 13,2 km/h (3 Bft) SW 0,00 h 0,025 mm 0,0 UV-I 0 W/m -3,8 C -7,0 C 19,8 km/h (3 Bft) 99,92 %
14.01.2017 03:00 -2,0 C 86 % 1005,6 hPa 0,0 l/m 14,3 km/h (3 Bft) W-SW 0,00 h 0,026 mm 0,0 UV-I 0 W/m -4,0 C -8,9 C 21,4 km/h (4 Bft) 97,91 %
14.01.2017 04:00 -2,4 C 87 % 1005,2 hPa 0,0 l/m 12,1 km/h (2 Bft) W-SW 0,00 h 0,025 mm 0,0 UV-I 0 W/m -4,2 C -7,8 C 17,5 km/h (3 Bft) 99,17 %
14.01.2017 05:00 -2,4 C 87 % 1004,6 hPa 0,0 l/m 11,7 km/h (2 Bft) W-SW 0,00 h 0,000 mm 0,0 UV-I 0 W/m -4,2 C -7,4 C 18,0 km/h (3 Bft) 98,69 %
14.01.2017 06:00 -2,2 C 85 % 1004,4 hPa 0,0 l/m 12,9 km/h (3 Bft) SW 0,00 h 0,000 mm 0,0 UV-I 0 W/m -4,3 C -8,0 C 19,2 km/h (3 Bft) 98,95 %
14.01.2017 07:00 -1,4 C 84 % 1004,5 hPa 0,0 l/m 18,3 km/h (3 Bft) W-SW 0,00 h 0,026 mm 0,0 UV-I 5 W/m -3,8 C -10,1 C 27,2 km/h (4 Bft) 99,04 %
14.01.2017 08:00 -0,7 C 88 % 1004,6 hPa 0,0 l/m 23,8 km/h (4 Bft) W-SW 0,10 h 0,025 mm 0,0 UV-I 26 W/m -2,4 C -12,2 C 35,9 km/h (5 Bft) 98,17 %
14.01.2017 09:00 -0,4 C 91 % 1005,2 hPa 0,0 l/m 22,3 km/h (4 Bft) SW 0,00 h 0,025 mm 0,0 UV-I 40 W/m -1,7 C -11,1 C 32,1 km/h (5 Bft) 99,47 %
14.01.2017 10:00 0,5 C 90 % 1005,8 hPa 0,0 l/m 19,7 km/h (3 Bft) SW 0,10 h 0,026 mm 0,0 UV-I 113 W/m -0,9 C -8,8 C 29,0 km/h (5 Bft) 97,98 %
14.01.2017 11:00 1,4 C 87 % 1006,1 hPa 0,4 l/m 21,1 km/h (4 Bft) W-SW 0,17 h 0,051 mm 0,0 UV-I 126 W/m -0,5 C -8,3 C 31,2 km/h (5 Bft) 99,41 %
14.01.2017 12:00 1,1 C 91 % 1006,6 hPa 0,2 l/m 20,7 km/h (4 Bft) W-SW 0,00 h 0,050 mm 0,0 UV-I 90 W/m -0,2 C -8,4 C 30,7 km/h (5 Bft) 98,28 %
14.01.2017 13:00 1,7 C 85 % 1007,2 hPa 0,2 l/m 25,2 km/h (4 Bft) W-SW 0,20 h 0,051 mm 0,0 UV-I 135 W/m -0,5 C -9,4 C 38,7 km/h (5 Bft) 99,59 %
14.01.2017 14:00 1,7 C 83 % 1008,2 hPa 0,0 l/m 24,9 km/h (4 Bft) W-SW 0,00 h 0,076 mm 0,0 UV-I 81 W/m -0,9 C -9,3 C 38,5 km/h (5 Bft) 98,28 %
14.01.2017 15:00 1,1 C 85 % 1009,3 hPa 0,2 l/m 23,3 km/h (4 Bft) W-SW 0,00 h 0,051 mm 0,0 UV-I 49 W/m -1,1 C -9,4 C 35,1 km/h (5 Bft) 99,23 %
14.01.2017 16:00 0,6 C 88 % 1010,2 hPa 0,0 l/m 20,3 km/h (4 Bft) W-SW 0,00 h 0,051 mm 0,0 UV-I 13 W/m -1,1 C -8,9 C 31,1 km/h (5 Bft) 98,26 %
14.01.2017 17:00 0,7 C 84 % 1011,1 hPa 0,0 l/m 24,0 km/h (4 Bft) W-SW 0,00 h 0,025 mm 0,0 UV-I 0 W/m -1,7 C -10,4 C 36,4 km/h (5 Bft) 99,26 %
14.01.2017 18:00 0,4 C 86 % 1012,1 hPa 0,0 l/m 18,6 km/h (3 Bft) W-SW 0,00 h 0,026 mm 0,0 UV-I 0 W/m -1,6 C -8,3 C 27,4 km/h (4 Bft) 97,62 %
14.01.2017 19:00 -0,4 C 93 % 1012,8 hPa 0,0 l/m 17,6 km/h (3 Bft) W-SW 0,00 h 0,025 mm 0,0 UV-I 0 W/m -1,3 C -8,9 C 25,8 km/h (4 Bft) 99,40 %
14.01.2017 20:00 -0,6 C 92 % 1013,3 hPa 0,0 l/m 13,9 km/h (3 Bft) SW 0,00 h 0,000 mm 0,0 UV-I 0 W/m -1,7 C -7,0 C 21,2 km/h (4 Bft) 97,47 %
14.01.2017 21:00 -0,9 C 92 % 1013,9 hPa 0,0 l/m 14,2 km/h (3 Bft) W-SW 0,00 h 0,000 mm 0,0 UV-I 0 W/m -2,1 C -7,5 C 20,7 km/h (4 Bft) 99,37 %
14.01.2017 22:00 -1,1 C 92 % 1014,6 hPa 0,0 l/m 14,6 km/h (3 Bft) SW 0,00 h 0,000 mm 0,0 UV-I 0 W/m -2,2 C -8,0 C 21,1 km/h (4 Bft) 98,21 %
14.01.2017 23:00 -1,5 C 93 % 1014,8 hPa 0,0 l/m 14,9 km/h (3 Bft) SW 0,00 h 0,000 mm 0,0 UV-I 0 W/m -2,5 C -8,7 C 22,1 km/h (4 Bft) 99,42 %
15.01.2017 00:00 -1,7 C 94 % 1015,0 hPa 0,0 l/m 13,2 km/h (3 Bft) SW 0,00 h 0,000 mm 0,0 UV-I 0 W/m -2,6 C -7,9 C 20,3 km/h (4 Bft) 98,41 %
15.01.2017 01:00 -1,8 C 93 % 1015,2 hPa 0,0 l/m 12,6 km/h (3 Bft) W-SW 0,00 h 0,000 mm 0,0 UV-I 0 W/m -2,7 C -7,4 C 18,9 km/h (3 Bft) 98,74 %
15.01.2017 02:00 -1,6 C 92 % 1015,7 hPa 0,0 l/m 10,6 km/h (2 Bft) SW 0,00 h 0,000 mm 0,0 UV-I 0 W/m -2,7 C -5,5 C 16,2 km/h (3 Bft) 99,17 %
15.01.2017 03:00 -2,2 C 92 % 1015,7 hPa 0,0 l/m 9,2 km/h (2 Bft) S-SW 0,00 h 0,000 mm 0,0 UV-I 0 W/m -3,3 C -5,1 C 14,7 km/h (3 Bft) 97,85 %
15.01.2017 04:00 -2,2 C 89 % 1015,6 hPa 0,0 l/m 13,8 km/h (3 Bft) SW 0,00 h 0,000 mm 0,0 UV-I 0 W/m -3,8 C -8,7 C 20,2 km/h (4 Bft) 99,58 %
15.01.2017 05:00 -1,7 C 88 % 1015,8 hPa 0,0 l/m 17,1 km/h (3 Bft) W-SW 0,00 h 0,000 mm 0,0 UV-I 0 W/m -3,4 C -10,3 C 25,8 km/h (4 Bft) 97,98 %
15.01.2017 06:00 -1,7 C 90 % 1016,3 hPa 0,0 l/m 17,3 km/h (3 Bft) W-SW 0,00 h 0,025 mm 0,0 UV-I 0 W/m -3,2 C -10,4 C 25,3 km/h (4 Bft) 99,13 %
15.01.2017 07:00 -1,8 C 93 % 1017,0 hPa 0,0 l/m 16,3 km/h (3 Bft) SW 0,00 h 0,000 mm 0,0 UV-I 6 W/m -2,8 C -9,8 C 24,7 km/h (4 Bft) 98,21 %
15.01.2017 08:00 -1,7 C 90 % 1017,8 hPa 0,0 l/m 15,5 km/h (3 Bft) SW 0,00 h 0,000 mm 0,0 UV-I 30 W/m -3,2 C -9,3 C 23,0 km/h (4 Bft) 99,17 %
15.01.2017 09:00 -1,5 C 88 % 1018,5 hPa 0,0 l/m 16,0 km/h (3 Bft) SW 0,37 h 0,026 mm 0,0 UV-I 144 W/m -3,2 C -9,4 C 24,0 km/h (4 Bft) 98,54 %
15.01.2017 10:00 -1,0 C 88 % 1018,8 hPa 0,2 l/m 15,6 km/h (3 Bft) SW 0,07 h 0,051 mm 0,0 UV-I 116 W/m -2,7 C -8,4 C 24,2 km/h (4 Bft) 98,96 %
15.01.2017 11:00 -0,3 C 86 % 1018,9 hPa 0,2 l/m 15,6 km/h (3 Bft) SW 0,77 h 0,050 mm 0,5 UV-I 359 W/m -2,4 C -7,5 C 23,5 km/h (4 Bft) 97,99 %
15.01.2017 12:00 -0,3 C 84 % 1019,0 hPa 0,2 l/m 15,3 km/h (3 Bft) SW 0,63 h 0,127 mm 0,5 UV-I 228 W/m -2,7 C -7,5 C 23,2 km/h (4 Bft) 99,10 %
15.01.2017 13:00 -0,2 C 84 % 1018,9 hPa 0,0 l/m 15,3 km/h (3 Bft) W-SW 0,37 h 0,102 mm 0,4 UV-I 201 W/m -2,6 C -7,3 C 22,8 km/h (4 Bft) 99,25 %
15.01.2017 14:00 -0,4 C 85 % 1019,2 hPa 0,0 l/m 13,1 km/h (3 Bft) SW 0,13 h 0,076 mm 0,0 UV-I 100 W/m -2,6 C -6,2 C 20,1 km/h (4 Bft) 98,60 %
15.01.2017 15:00 -1,2 C 88 % 1019,3 hPa 0,0 l/m 11,6 km/h (2 Bft) SW 0,33 h 0,051 mm 0,0 UV-I 71 W/m -2,9 C -5,9 C 17,8 km/h (3 Bft) 99,61 %
15.01.2017 16:00 -1,7 C 89 % 1019,6 hPa 0,0 l/m 10,6 km/h (2 Bft) S-SW 0,03 h 0,025 mm 0,0 UV-I 13 W/m -3,2 C -5,4 C 15,8 km/h (3 Bft) 97,92 %
15.01.2017 17:00 -1,8 C 89 % 1019,8 hPa 0,0 l/m 9,9 km/h (2 Bft) S-SW 0,00 h 0,000 mm 0,0 UV-I 0 W/m -3,4 C -5,2 C 15,4 km/h (3 Bft) 99,79 %
15.01.2017 18:00 -1,8 C 88 % 1020,2 hPa 0,0 l/m 13,8 km/h (3 Bft) SW 0,00 h 0,000 mm 0,0 UV-I 0 W/m -3,6 C -8,4 C 20,3 km/h (4 Bft) 98,07 %
15.01.2017 19:00 -2,7 C 92 % 1020,6 hPa 0,0 l/m 9,7 km/h (2 Bft) SW 0,00 h 0,000 mm 0,0 UV-I 0 W/m -3,8 C -6,0 C 14,4 km/h (3 Bft) 99,05 %
15.01.2017 20:00 -2,2 C 93 % 1020,5 hPa 0,0 l/m 11,4 km/h (2 Bft) SW 0,00 h 0,000 mm 0,0 UV-I 0 W/m -3,2 C -7,0 C 17,3 km/h (3 Bft) 98,75 %
15.01.2017 21:00 -2,7 C 94 % 1020,7 hPa 0,0 l/m 8,9 km/h (2 Bft) SW 0,00 h 0,000 mm 0,0 UV-I 0 W/m -3,5 C -5,3 C 13,5 km/h (3 Bft) 98,64 %
15.01.2017 22:00 -3,0 C 93 % 1020,7 hPa 0,0 l/m 8,2 km/h (2 Bft) SW 0,00 h 0,000 mm 0,0 UV-I 0 W/m -4,0 C -5,0 C 12,5 km/h (3 Bft) 99,24 %
15.01.2017 23:00 -3,3 C 93 % 1020,7 hPa 0,0 l/m 7,8 km/h (2 Bft) SW 0,00 h 0,000 mm 0,0 UV-I 0 W/m -4,3 C -5,0 C 11,4 km/h (2 Bft) 98,16 %
Min-Datum _ 11.01.17 13.01.17 13.01.17 - 09.01.17 - - - - - 11.01.17 10.01.17 09.01.17 11.01.17
_ Min-Zeit 06:06 12:32 04:30 - 17:14 - - - - - 04:10 17:52 17:14 06:50
Minimum _ -10,7 C 62 % 994,2 hPa - 0,0 km/h (0 Bft) - - - - - -13,1 C -25,3 C 0,0 km/h (0 Bft) 59,52 %
Max-Datum _ 12.01.17 13.01.17 09.01.17 13.01.17 13.01.17 - 09.01.17 13.01.17 10.01.17 15.01.17 12.01.17 12.01.17 13.01.17 09.01.17
_ Max-Zeit 14:20 04:12 00:00 05:08 12:22 - 12:56 13:02 11:50 11:40 15:32 15:02 12:22 00:00
Maximum _ 4,1 C 98 % 1030,6 hPa 1,6 l/m 36,1 km/h
W-SW (5 Bft)
- 0,03 h 0,127 mm 0,7 UV-I 560 W/m 2,2 C 3,8 C 61,2 km/h
W-SW (7 Bft)
100,00 %
Durchschnitt _ -2,0 C 89 % 1013,9 hPa #5,2 l/m 12,2 km/h (2 Bft) W-SW #13:00 h #3,707 mm 0,5 UV-I 98 W/m -3,7 C -7,2 C 18,3 km/h (3 Bft) 98,63 %